createdAt,value
2022-08-10T00:01:52.482Z,101893.47
2022-08-10T00:04:23.371Z,101866.25
2022-08-10T00:06:54.913Z,101890.59
2022-08-10T00:09:22.502Z,101865.94
2022-08-10T00:11:49.124Z,101891.78
2022-08-10T00:14:16.045Z,101871.19
2022-08-10T00:16:42.576Z,101858.50
2022-08-10T00:19:09.815Z,101890.66
2022-08-10T00:21:36.723Z,101890.16
2022-08-10T00:24:04.064Z,101874.06
2022-08-10T00:27:51.854Z,101873.19
2022-08-10T00:29:17.181Z,101834.50
2022-08-10T00:31:58.673Z,101862.41
2022-08-10T00:34:30.711Z,101874.75
2022-08-10T00:36:58.071Z,101861.22
2022-08-10T00:39:25.953Z,101877.78
2022-08-10T00:42:01.688Z,101832.97
2022-08-10T00:44:53.630Z,101871.34
2022-08-10T00:47:36.479Z,101862.06
2022-08-10T00:50:05.955Z,101880.81
2022-08-10T00:52:33.551Z,101876.22
2022-08-10T00:55:02.909Z,101852.84
2022-08-10T00:57:29.633Z,101833.09
2022-08-10T00:59:59.407Z,101813.09
2022-08-10T01:02:32.156Z,101884.72
2022-08-10T01:05:02.264Z,101879.44
2022-08-10T01:07:49.230Z,101885.34
2022-08-10T01:10:20.421Z,101839.16
2022-08-10T01:13:02.237Z,101880.47
2022-08-10T01:15:32.343Z,101852.72
2022-08-10T01:18:05.097Z,101874.75
2022-08-10T01:21:29.136Z,101870.88
2022-08-10T01:24:14.339Z,101872.22
2022-08-10T01:26:50.746Z,101811.63
2022-08-10T01:29:42.503Z,101858.16
2022-08-10T01:32:11.679Z,101846.00
2022-08-10T01:35:18.704Z,101761.09
2022-08-10T01:37:58.882Z,101826.72
2022-08-10T01:40:27.967Z,101854.59
2022-08-10T01:42:59.831Z,101856.13
2022-08-10T01:45:44.489Z,101837.81
2022-08-10T01:48:31.056Z,101855.38
2022-08-10T01:51:05.084Z,101843.09
2022-08-10T01:53:41.738Z,101849.25
2022-08-10T01:56:11.371Z,101859.75
2022-08-10T01:58:38.722Z,101848.25
2022-08-10T02:01:08.024Z,101846.03
2022-08-10T02:03:35.772Z,101834.44
2022-08-10T02:06:25.202Z,101847.56
2022-08-10T02:09:05.746Z,101828.88
2022-08-10T02:11:55.806Z,101843.03
2022-08-10T02:14:21.827Z,101858.28
2022-08-10T02:16:51.582Z,101822.81
2022-08-10T02:19:20.799Z,101864.66
2022-08-10T02:22:37.115Z,101864.00
2022-08-10T02:24:39.694Z,101840.88
2022-08-10T02:27:06.625Z,101857.91
2022-08-10T02:29:34.251Z,101834.88
2022-08-10T02:32:01.468Z,101857.88
2022-08-10T02:34:28.489Z,101824.09
2022-08-10T02:36:57.333Z,101843.78
2022-08-10T02:39:24.892Z,101848.91
2022-08-10T02:45:08.286Z,101855.94
2022-08-10T02:45:29.658Z,101824.94
2022-08-10T02:48:09.180Z,101843.41
2022-08-10T02:50:36.966Z,101857.63
2022-08-10T02:53:56.331Z,101844.41
2022-08-10T02:56:27.925Z,101821.44
2022-08-10T02:59:04.337Z,101807.34
2022-08-10T03:01:34.410Z,101859.16
2022-08-10T03:04:05.538Z,101849.38
2022-08-10T03:06:39.420Z,101868.44
2022-08-10T03:09:07.594Z,101856.75
2022-08-10T03:12:37.158Z,101823.53
2022-08-10T03:14:22.971Z,101864.25
2022-08-10T03:16:51.000Z,101843.53
2022-08-10T03:20:34.625Z,101839.97
2022-08-10T03:22:07.516Z,101867.25
2022-08-10T03:24:34.532Z,101852.31
2022-08-10T03:27:01.620Z,101848.75
2022-08-10T03:29:28.759Z,101869.16
2022-08-10T03:31:55.525Z,101869.56
2022-08-10T03:34:32.826Z,101846.13
2022-08-10T03:37:00.811Z,101851.41
2022-08-10T03:39:27.657Z,101861.03
2022-08-10T03:41:56.109Z,101869.72
2022-08-10T03:44:28.997Z,101852.72
2022-08-10T03:46:55.892Z,101861.88
2022-08-10T03:49:23.380Z,101859.66
2022-08-10T03:51:51.474Z,101850.56
2022-08-10T03:54:18.817Z,101831.88
2022-08-10T03:56:45.879Z,101853.66
2022-08-10T03:59:14.624Z,101860.50
2022-08-10T04:02:45.762Z,101860.16
2022-08-10T04:04:29.787Z,101854.31
2022-08-10T04:06:58.140Z,101860.94
2022-08-10T04:09:55.074Z,101857.88
2022-08-10T04:12:20.420Z,101855.66
2022-08-10T04:14:50.965Z,101855.88
2022-08-10T04:18:03.253Z,101828.53
2022-08-10T04:20:34.713Z,101861.34
2022-08-10T04:23:05.843Z,101848.44
2022-08-10T04:25:32.929Z,101857.13
2022-08-10T04:27:59.745Z,101829.38
2022-08-10T04:30:28.038Z,101831.84
2022-08-10T04:32:55.407Z,101852.56
2022-08-10T04:35:23.984Z,101842.41
2022-08-10T04:37:51.811Z,101861.97
2022-08-10T04:40:29.741Z,101821.63
2022-08-10T04:43:11.347Z,101857.59
2022-08-10T04:45:49.651Z,101847.88
2022-08-10T04:48:43.016Z,101868.44
2022-08-10T04:51:06.416Z,101860.81
2022-08-10T04:53:34.000Z,101859.97
2022-08-10T04:56:20.614Z,101860.94
2022-08-10T04:58:58.544Z,101859.50
2022-08-10T05:01:25.184Z,101821.25
2022-08-10T05:04:34.789Z,101856.06
2022-08-10T05:06:38.263Z,101865.81
2022-08-10T05:09:04.778Z,101867.47
2022-08-10T05:11:31.335Z,101871.91
2022-08-10T05:13:57.857Z,101861.34
2022-08-10T05:16:32.307Z,101871.13
2022-08-10T05:18:59.504Z,101823.47
2022-08-10T05:22:03.660Z,101871.88
2022-08-10T05:24:12.595Z,101867.41
2022-08-10T05:26:54.906Z,101850.84
2022-08-10T05:29:23.958Z,101842.75
2022-08-10T05:31:50.678Z,101863.06
2022-08-10T05:34:20.743Z,101838.63
2022-08-10T05:36:47.972Z,101840.38
2022-08-10T05:39:15.092Z,101866.72
2022-08-10T05:41:46.059Z,101869.25
2022-08-10T05:44:13.773Z,101868.34
2022-08-10T05:46:40.933Z,101869.28
2022-08-10T05:49:07.476Z,101829.03
2022-08-10T05:51:34.041Z,101870.75
2022-08-10T05:54:05.567Z,101867.06
2022-08-10T05:56:55.378Z,101855.72
2022-08-10T06:00:29.365Z,101876.13
2022-08-10T06:02:31.851Z,101867.91
2022-08-10T06:05:05.905Z,101876.97
2022-08-10T06:07:33.408Z,101872.50
2022-08-10T06:10:00.654Z,101853.81
2022-08-10T06:12:36.417Z,101883.41
2022-08-10T06:15:21.606Z,101859.13
2022-08-10T06:18:04.976Z,101891.19
2022-08-10T06:20:35.964Z,101888.91
2022-08-10T06:23:04.622Z,101889.16
2022-08-10T06:26:08.543Z,101873.34
2022-08-10T06:28:19.528Z,101856.31
2022-08-10T06:30:46.824Z,101895.91
2022-08-10T06:33:13.934Z,101867.31
2022-08-10T06:35:41.285Z,101877.84
2022-08-10T06:38:08.642Z,101851.13
2022-08-10T06:40:40.529Z,101888.56
2022-08-10T06:43:09.960Z,101867.34
2022-08-10T06:45:43.194Z,101899.81
2022-08-10T06:48:16.549Z,101896.38
2022-08-10T06:50:58.659Z,101881.00
2022-08-10T06:53:51.992Z,101892.06
2022-08-10T06:56:17.939Z,101894.03
2022-08-10T06:58:53.121Z,101899.13
2022-08-10T07:01:24.183Z,101899.25
2022-08-10T07:04:05.615Z,101884.78
2022-08-10T07:06:34.259Z,101847.44
2022-08-10T07:09:01.967Z,101892.28
2022-08-10T07:11:29.057Z,101890.28
2022-08-10T07:14:16.647Z,101867.47
2022-08-10T07:16:45.711Z,101881.84
2022-08-10T07:19:12.933Z,101868.81
2022-08-10T07:21:42.027Z,101896.69
2022-08-10T07:24:14.096Z,101889.78
2022-08-10T07:26:45.774Z,101852.38
2022-08-10T07:29:53.887Z,101858.28
2022-08-10T07:32:02.809Z,101872.13
2022-08-10T07:34:30.316Z,101892.50
2022-08-10T07:37:02.967Z,101886.09
2022-08-10T07:40:01.783Z,101848.69
2022-08-10T07:42:20.640Z,101889.28
2022-08-10T07:44:48.311Z,101847.84
2022-08-10T07:47:18.648Z,101893.75
2022-08-10T07:50:08.053Z,101883.41
2022-08-10T07:52:35.548Z,101866.97
2022-08-10T07:55:03.793Z,101883.09
2022-08-10T07:57:34.821Z,101867.69
2022-08-10T08:00:08.400Z,101868.91
2022-08-10T08:02:37.634Z,101868.63
2022-08-10T08:05:09.863Z,101859.84
2022-08-10T08:07:40.612Z,101895.25
2022-08-10T08:10:09.567Z,101888.97
2022-08-10T08:12:38.412Z,101895.22
2022-08-10T08:16:14.268Z,101884.28
2022-08-10T08:17:59.869Z,101900.22
2022-08-10T08:20:27.545Z,101889.63
2022-08-10T08:24:05.336Z,101878.78
2022-08-10T08:25:43.407Z,101896.53
2022-08-10T08:28:10.630Z,101893.06
2022-08-10T08:30:38.673Z,101874.56
2022-08-10T08:33:06.546Z,101889.03
2022-08-10T08:35:33.436Z,101879.66
2022-08-10T08:38:29.534Z,101878.78
2022-08-10T08:40:54.855Z,101890.53
2022-08-10T08:44:06.900Z,101884.13
2022-08-10T08:46:59.311Z,101872.34
2022-08-10T08:50:09.627Z,101879.69
2022-08-10T08:54:02.244Z,101867.78
2022-08-10T08:57:03.793Z,101874.75
2022-08-10T08:59:55.060Z,101871.06
2022-08-10T09:02:36.967Z,101871.97
2022-08-10T09:05:06.445Z,101870.25
2022-08-10T09:08:03.318Z,101872.59
2022-08-10T09:10:54.402Z,101863.66
2022-08-10T09:13:41.196Z,101854.72
2022-08-10T09:16:37.848Z,101850.00
2022-08-10T09:19:34.885Z,101840.75
2022-08-10T09:22:18.314Z,101847.75
2022-08-10T09:24:59.530Z,101844.91
2022-08-10T09:27:50.542Z,101814.06
2022-08-10T09:30:32.946Z,101844.44
2022-08-10T09:36:20.692Z,101823.78
2022-08-10T09:36:22.290Z,101817.63
2022-08-10T09:39:03.758Z,101812.34
2022-08-10T09:41:34.006Z,101808.59
2022-08-10T09:44:08.995Z,101792.38
2022-08-10T09:46:54.417Z,101796.94
2022-08-10T09:50:04.358Z,101800.09
2022-08-10T09:52:58.704Z,101796.53
2022-08-10T09:56:17.694Z,101779.81
2022-08-10T09:59:27.086Z,101791.88
2022-08-10T10:02:02.868Z,101758.56
2022-08-10T10:04:57.075Z,101761.94
2022-08-10T10:07:26.801Z,101769.78
2022-08-10T10:10:01.412Z,101774.91
2022-08-10T10:12:46.356Z,101768.31
2022-08-10T10:15:27.933Z,101760.69
2022-08-10T10:18:21.891Z,101760.75
2022-08-10T10:21:03.902Z,101736.63
2022-08-10T10:24:23.253Z,101756.53
2022-08-10T10:27:01.866Z,101741.16
2022-08-10T10:29:57.091Z,101741.31
2022-08-10T10:32:39.351Z,101749.50
2022-08-10T10:35:37.084Z,101743.59
2022-08-10T10:38:07.809Z,101737.50
2022-08-10T10:40:40.174Z,101717.84
2022-08-10T10:43:32.726Z,101737.06
2022-08-10T10:46:07.949Z,101744.16
2022-08-10T10:48:58.880Z,101738.56
2022-08-10T10:51:54.930Z,101735.25
2022-08-10T10:54:36.143Z,101718.84
2022-08-10T10:57:21.622Z,101729.13
2022-08-10T11:00:09.939Z,101722.25
2022-08-10T11:03:13.642Z,101722.34
2022-08-10T11:06:09.508Z,101711.78
2022-08-10T11:08:44.617Z,101721.75
2022-08-10T11:12:00.307Z,101688.50
2022-08-10T11:14:35.995Z,101705.88
2022-08-10T11:17:12.123Z,101697.44
2022-08-10T11:20:12.297Z,101711.47
2022-08-10T11:22:48.307Z,101690.31
2022-08-10T11:25:33.996Z,101697.25
2022-08-10T11:28:11.289Z,101701.53
2022-08-10T11:30:59.368Z,101673.59
2022-08-10T11:34:03.946Z,101683.84
2022-08-10T11:36:25.407Z,101691.53
2022-08-10T11:39:19.002Z,101680.97
2022-08-10T11:42:07.868Z,101679.38
2022-08-10T11:44:34.998Z,101682.91
2022-08-10T11:47:06.656Z,101683.34
2022-08-10T11:49:45.753Z,101664.69
2022-08-10T11:52:20.800Z,101652.19
2022-08-10T11:54:52.475Z,101655.41
2022-08-10T11:57:19.652Z,101649.69
2022-08-10T11:59:58.335Z,101669.16
2022-08-10T12:02:36.476Z,101659.88
2022-08-10T12:05:11.044Z,101669.59
2022-08-10T12:10:07.865Z,101666.25
2022-08-10T12:10:42.865Z,101645.03
2022-08-10T12:13:19.784Z,101671.19
2022-08-10T12:15:54.293Z,101666.72
2022-08-10T12:18:25.319Z,101657.50
2022-08-10T12:20:57.909Z,101641.00
2022-08-10T12:23:39.340Z,101660.78
2022-08-10T12:26:13.116Z,101648.41
2022-08-10T12:29:11.982Z,101660.03
2022-08-10T12:31:43.387Z,101664.00
2022-08-10T12:34:20.170Z,101674.31
2022-08-10T12:37:11.703Z,101667.19
2022-08-10T12:39:53.269Z,101648.53
2022-08-10T12:42:36.833Z,101650.66
2022-08-10T12:45:14.802Z,101662.22
2022-08-10T12:47:56.751Z,101659.00
2022-08-10T12:50:47.233Z,101653.00
2022-08-10T12:53:28.885Z,101645.38
2022-08-10T12:59:48.005Z,101645.59
2022-08-10T13:02:21.761Z,101634.34
2022-08-10T13:04:51.313Z,101616.75
2022-08-10T13:08:03.636Z,101623.31
2022-08-10T13:10:15.586Z,101594.63
2022-08-10T13:12:48.557Z,101596.09
2022-08-10T13:15:44.989Z,101622.88
2022-08-10T13:18:18.150Z,101611.88
2022-08-10T13:20:51.442Z,101587.84
2022-08-10T13:23:22.753Z,101607.59
2022-08-10T13:25:50.593Z,101610.09
2022-08-10T13:28:35.454Z,101611.69
2022-08-10T13:31:06.120Z,101610.13
2022-08-10T13:34:03.814Z,101566.53
2022-08-10T13:36:29.219Z,101605.53
2022-08-10T13:38:57.350Z,101551.47
2022-08-10T13:41:28.899Z,101598.84
2022-08-10T13:43:58.654Z,101599.53
2022-08-10T13:46:27.738Z,101589.88
2022-08-10T13:48:55.305Z,101575.44
2022-08-10T13:51:56.954Z,101584.69
2022-08-10T13:54:11.221Z,101560.09
2022-08-10T13:56:40.882Z,101576.03
2022-08-10T13:59:09.951Z,101563.00
2022-08-10T14:01:37.912Z,101562.56
2022-08-10T14:04:06.654Z,101582.31
2022-08-10T14:06:33.620Z,101518.94
2022-08-10T14:09:04.711Z,101580.97
2022-08-10T14:11:32.095Z,101556.63
2022-08-10T14:14:02.460Z,101568.94
2022-08-10T14:16:29.605Z,101562.22
2022-08-10T14:18:59.787Z,101561.03
2022-08-10T14:21:27.486Z,101562.34
2022-08-10T14:23:54.219Z,101555.28
2022-08-10T14:26:28.886Z,101563.88
2022-08-10T14:29:07.056Z,101570.59
2022-08-10T14:31:36.416Z,101538.63
2022-08-10T14:34:05.112Z,101516.84
2022-08-10T14:36:45.416Z,101551.38
2022-08-10T14:39:15.510Z,101563.03
2022-08-10T14:42:02.463Z,101547.78
2022-08-10T14:44:30.701Z,101557.63
2022-08-10T14:46:59.266Z,101552.59
2022-08-10T14:49:28.489Z,101530.69
2022-08-10T14:52:01.685Z,101557.72
2022-08-10T14:54:30.074Z,101549.69
2022-08-10T14:57:11.526Z,101532.09
2022-08-10T15:00:22.524Z,101539.06
2022-08-10T15:02:40.392Z,101493.03
2022-08-10T15:05:17.700Z,101534.44
2022-08-10T15:07:59.453Z,101538.75
2022-08-10T15:10:26.631Z,101539.09
2022-08-10T15:12:55.336Z,101539.34
2022-08-10T15:15:27.724Z,101537.69
2022-08-10T15:17:57.735Z,101517.69
2022-08-10T15:20:26.248Z,101515.22
2022-08-10T15:23:05.643Z,101530.63
2022-08-10T15:25:36.451Z,101495.47
2022-08-10T15:28:10.355Z,101509.28
2022-08-10T15:30:48.917Z,101521.50
2022-08-10T15:33:57.531Z,101517.75
2022-08-10T15:36:43.227Z,101517.56
2022-08-10T15:39:17.242Z,101510.47
2022-08-10T15:42:08.024Z,101521.69
2022-08-10T15:44:39.526Z,101516.25
2022-08-10T15:47:15.354Z,101513.50
2022-08-10T15:49:49.615Z,101493.47
2022-08-10T15:53:08.526Z,101504.06
2022-08-10T15:55:53.282Z,101522.75
2022-08-10T15:58:51.185Z,101521.88
2022-08-10T16:02:14.285Z,101523.97
2022-08-10T16:04:37.260Z,101515.53
2022-08-10T16:07:18.332Z,101485.66
2022-08-10T16:10:23.093Z,101499.00
2022-08-10T16:12:59.710Z,101513.63
2022-08-10T16:15:29.540Z,101509.09
2022-08-10T16:18:16.618Z,101511.59
2022-08-10T16:20:56.635Z,101503.97
2022-08-10T16:23:26.300Z,101499.34
2022-08-10T16:26:03.187Z,101500.75
2022-08-10T16:28:34.925Z,101479.72
2022-08-10T16:31:04.145Z,101496.91
2022-08-10T16:33:53.176Z,101506.47
2022-08-10T16:36:20.975Z,101500.00
2022-08-10T16:38:48.773Z,101477.56
2022-08-10T16:41:22.586Z,101488.13
2022-08-10T16:44:04.348Z,101480.09
2022-08-10T16:46:31.428Z,101466.72
2022-08-10T16:48:59.105Z,101489.03
2022-08-10T16:51:26.376Z,101486.19
2022-08-10T16:53:53.817Z,101482.16
2022-08-10T16:56:28.895Z,101487.34
2022-08-10T16:58:56.801Z,101483.44
2022-08-10T17:01:25.085Z,101481.13
2022-08-10T17:04:06.906Z,101484.38
2022-08-10T17:06:43.449Z,101487.22
2022-08-10T17:09:17.338Z,101466.00
2022-08-10T17:11:47.257Z,101486.13
2022-08-10T17:14:14.042Z,101476.06
2022-08-10T17:16:42.234Z,101481.13
2022-08-10T17:19:12.978Z,101456.13
2022-08-10T17:21:51.766Z,101483.50
2022-08-10T17:24:20.281Z,101479.47
2022-08-10T17:26:48.392Z,101449.47
2022-08-10T17:29:57.941Z,101479.56
2022-08-10T17:32:34.303Z,101475.56
2022-08-10T17:35:13.739Z,101465.78
2022-08-10T17:37:49.088Z,101465.47
2022-08-10T17:40:18.534Z,101450.50
2022-08-10T17:42:46.690Z,101463.81
2022-08-10T17:45:46.315Z,101465.31
2022-08-10T17:48:06.164Z,101461.25
2022-08-10T17:50:33.546Z,101457.28
2022-08-10T17:53:03.189Z,101461.44
2022-08-10T17:55:37.718Z,101456.44
2022-08-10T17:58:14.474Z,101443.94
2022-08-10T18:00:43.583Z,101446.81
2022-08-10T18:03:25.794Z,101468.19
2022-08-10T18:05:55.846Z,101463.72
2022-08-10T18:08:25.906Z,101430.69
2022-08-10T18:10:57.254Z,101466.06
2022-08-10T18:13:26.349Z,101463.81
2022-08-10T18:15:53.310Z,101480.81
2022-08-10T18:18:22.442Z,101467.00
2022-08-10T18:20:52.307Z,101481.06
2022-08-10T18:23:25.205Z,101478.97
2022-08-10T18:25:58.122Z,101468.53
2022-08-10T18:28:25.455Z,101447.88
2022-08-10T18:30:53.947Z,101479.56
2022-08-10T18:33:28.548Z,101482.22
2022-08-10T18:35:57.041Z,101481.56
2022-08-10T18:38:24.804Z,101457.78
2022-08-10T18:40:54.226Z,101484.47
2022-08-10T18:44:07.482Z,101453.06
2022-08-10T18:46:15.970Z,101488.41
2022-08-10T18:48:47.858Z,101482.09
2022-08-10T18:51:15.060Z,101497.56
2022-08-10T18:53:48.360Z,101498.81
2022-08-10T18:56:21.208Z,101501.66
2022-08-10T18:58:54.087Z,101493.53
2022-08-10T19:01:43.171Z,101491.00
2022-08-10T19:04:19.981Z,101481.03
2022-08-10T19:06:56.230Z,101471.94
2022-08-10T19:09:47.505Z,101501.94
2022-08-10T19:12:30.007Z,101497.44
2022-08-10T19:15:06.826Z,101511.69
2022-08-10T19:18:03.959Z,101500.53
2022-08-10T19:20:52.546Z,101503.84
2022-08-10T19:23:41.064Z,101508.06
2022-08-10T19:26:44.622Z,101508.94
2022-08-10T19:29:11.047Z,101461.28
2022-08-10T19:32:09.732Z,101508.00
2022-08-10T19:35:03.842Z,101504.41
2022-08-10T19:38:32.002Z,101506.97
2022-08-10T19:41:10.585Z,101483.31
2022-08-10T19:44:00.061Z,101516.06
2022-08-10T19:46:34.929Z,101518.56
2022-08-10T19:49:07.457Z,101519.22
2022-08-10T19:51:52.418Z,101487.41
2022-08-10T19:54:36.459Z,101524.06
2022-08-10T19:57:31.879Z,101523.84
2022-08-10T20:00:19.476Z,101497.25
2022-08-10T20:02:51.639Z,101521.59
2022-08-10T20:05:27.531Z,101521.19
2022-08-10T20:07:59.580Z,101520.09
2022-08-10T20:10:49.621Z,101513.41
2022-08-10T20:13:29.939Z,101520.94
2022-08-10T20:16:15.115Z,101527.63
2022-08-10T20:18:44.516Z,101500.00
2022-08-10T20:21:47.502Z,101523.47
2022-08-10T20:24:31.560Z,101530.16
2022-08-10T20:28:14.584Z,101516.75
2022-08-10T20:30:03.592Z,101521.16
2022-08-10T20:32:36.864Z,101522.19
2022-08-10T20:35:09.313Z,101525.88
2022-08-10T20:38:03.504Z,101512.00
2022-08-10T20:40:31.310Z,101518.94
2022-08-10T20:43:16.129Z,101520.31
2022-08-10T20:46:06.910Z,101526.00
2022-08-10T20:48:39.827Z,101531.69
2022-08-10T20:51:10.261Z,101529.19
2022-08-10T20:53:45.195Z,101523.53
2022-08-10T20:56:27.579Z,101535.84
2022-08-10T20:59:33.417Z,101543.97
2022-08-10T21:02:24.257Z,101548.22
2022-08-10T21:05:19.487Z,101542.97
2022-08-10T21:08:04.563Z,101543.19
2022-08-10T21:10:52.375Z,101512.38
2022-08-10T21:13:48.144Z,101547.19
2022-08-10T21:16:21.487Z,101542.13
2022-08-10T21:19:23.107Z,101539.13
2022-08-10T21:22:11.433Z,101544.81
2022-08-10T21:24:46.056Z,101511.06
2022-08-10T21:27:27.123Z,101544.19
2022-08-10T21:30:08.996Z,101543.28
2022-08-10T21:32:44.620Z,101539.13
2022-08-10T21:35:20.313Z,101539.13
2022-08-10T21:38:34.500Z,101539.78
2022-08-10T21:41:57.551Z,101540.16
2022-08-10T21:45:11.612Z,101547.06
2022-08-10T21:48:18.900Z,101543.28
2022-08-10T21:51:14.812Z,101547.25
2022-08-10T21:54:22.119Z,101526.44
2022-08-10T21:57:21.431Z,101517.94
2022-08-10T22:00:13.957Z,101506.81
2022-08-10T22:03:00.128Z,101519.22
2022-08-10T22:05:48.310Z,101530.94
2022-08-10T22:08:37.521Z,101530.88
2022-08-10T22:11:31.331Z,101523.13
2022-08-10T22:14:25.570Z,101512.84
2022-08-10T22:18:01.185Z,101504.00
2022-08-10T22:20:34.692Z,101485.81
2022-08-10T22:23:27.373Z,101536.19
2022-08-10T22:26:21.653Z,101537.31
2022-08-10T22:29:12.550Z,101527.19
2022-08-10T22:32:16.095Z,101535.97
2022-08-10T22:35:21.890Z,101533.06
2022-08-10T22:38:32.703Z,101535.34
2022-08-10T22:41:22.178Z,101532.81
2022-08-10T22:44:07.899Z,101533.47
2022-08-10T22:46:53.422Z,101514.78
2022-08-10T22:49:23.598Z,101531.41
2022-08-10T22:51:54.713Z,101529.72
2022-08-10T22:54:56.480Z,101531.59
2022-08-10T22:57:49.327Z,101499.22
2022-08-10T23:00:31.058Z,101506.81
2022-08-10T23:03:07.606Z,101519.91
2022-08-10T23:05:40.751Z,101521.56
2022-08-10T23:08:45.726Z,101523.44
2022-08-10T23:11:23.011Z,101523.94
2022-08-10T23:14:04.516Z,101517.69
2022-08-10T23:16:54.856Z,101517.41
2022-08-10T23:19:30.037Z,101495.31
2022-08-10T23:22:08.951Z,101525.94
2022-08-10T23:24:53.614Z,101489.53
2022-08-10T23:27:37.851Z,101467.59
2022-08-10T23:30:17.838Z,101511.38
2022-08-10T23:32:48.066Z,101512.22
2022-08-10T23:36:30.663Z,101514.00
2022-08-10T23:38:09.309Z,101512.84
2022-08-10T23:40:36.823Z,101503.50
2022-08-10T23:43:04.872Z,101509.06
2022-08-10T23:45:53.021Z,101504.72
2022-08-10T23:48:27.734Z,101512.13
2022-08-10T23:50:58.512Z,101510.81
2022-08-10T23:53:46.662Z,101515.66
2022-08-10T23:56:16.797Z,101518.19
2022-08-10T23:58:55.074Z,101511.94
